sensor_id;sensor_type;location;lat;lon;timestamp;pressure;altitude;pressure_sealevel;temperature;humidity
18858;BME280;9558;50.178;8.370;2023-05-21T00:01:03;98080.13;;;14.60;98.63
18858;BME280;9558;50.178;8.370;2023-05-21T00:03:50;98082.34;;;14.57;99.31
18858;BME280;9558;50.178;8.370;2023-05-21T00:06:37;98073.53;;;14.58;99.12
18858;BME280;9558;50.178;8.370;2023-05-21T00:09:24;98078.53;;;14.59;99.50
18858;BME280;9558;50.178;8.370;2023-05-21T00:12:11;98077.94;;;14.57;99.85
18858;BME280;9558;50.178;8.370;2023-05-21T00:14:59;98076.72;;;14.53;100.00
18858;BME280;9558;50.178;8.370;2023-05-21T00:17:46;98074.53;;;14.50;99.49
18858;BME280;9558;50.178;8.370;2023-05-21T00:20:33;98077.97;;;14.50;100.00
18858;BME280;9558;50.178;8.370;2023-05-21T00:23:20;98074.94;;;14.47;100.00
18858;BME280;9558;50.178;8.370;2023-05-21T00:26:06;98069.16;;;14.45;100.00
18858;BME280;9558;50.178;8.370;2023-05-21T00:28:53;98066.91;;;14.42;100.00
18858;BME280;9558;50.178;8.370;2023-05-21T00:31:41;98065.94;;;14.43;100.00
18858;BME280;9558;50.178;8.370;2023-05-21T00:34:28;98069.34;;;14.43;100.00
18858;BME280;9558;50.178;8.370;2023-05-21T00:37:15;98063.72;;;14.40;100.00
18858;BME280;9558;50.178;8.370;2023-05-21T00:40:02;98053.31;;;14.40;100.00
18858;BME280;9558;50.178;8.370;2023-05-21T00:42:52;98052.75;;;14.38;100.00
18858;BME280;9558;50.178;8.370;2023-05-21T00:45:41;98059.13;;;14.35;100.00
18858;BME280;9558;50.178;8.370;2023-05-21T00:48:32;98050.50;;;14.34;100.00
18858;BME280;9558;50.178;8.370;2023-05-21T00:51:19;98053.53;;;14.31;100.00
18858;BME280;9558;50.178;8.370;2023-05-21T00:54:07;98050.91;;;14.31;100.00
18858;BME280;9558;50.178;8.370;2023-05-21T00:56:54;98052.94;;;14.29;100.00
18858;BME280;9558;50.178;8.370;2023-05-21T00:59:41;98052.53;;;14.26;100.00
18858;BME280;9558;50.178;8.370;2023-05-21T01:02:28;98041.31;;;14.25;100.00
18858;BME280;9558;50.178;8.370;2023-05-21T01:05:18;98041.31;;;14.25;100.00
18858;BME280;9558;50.178;8.370;2023-05-21T01:08:06;98035.13;;;14.26;100.00
18858;BME280;9558;50.178;8.370;2023-05-21T01:10:55;98040.72;;;14.30;100.00
18858;BME280;9558;50.178;8.370;2023-05-21T01:13:43;98042.94;;;14.26;100.00
18858;BME280;9558;50.178;8.370;2023-05-21T01:16:31;98035.13;;;14.26;100.00
18858;BME280;9558;50.178;8.370;2023-05-21T01:19:21;98041.91;;;14.27;100.00
18858;BME280;9558;50.178;8.370;2023-05-21T01:22:11;98031.31;;;14.22;100.00
18858;BME280;9558;50.178;8.370;2023-05-21T01:25:02;98029.72;;;14.21;100.00
18858;BME280;9558;50.178;8.370;2023-05-21T01:27:49;98034.53;;;14.17;100.00
18858;BME280;9558;50.178;8.370;2023-05-21T01:30:36;98026.13;;;14.15;100.00
18858;BME280;9558;50.178;8.370;2023-05-21T01:33:27;98023.13;;;14.12;100.00
18858;BME280;9558;50.178;8.370;2023-05-21T01:36:18;98031.13;;;14.04;100.00
18858;BME280;9558;50.178;8.370;2023-05-21T01:39:12;98013.31;;;14.00;100.00
18858;BME280;9558;50.178;8.370;2023-05-21T01:42:03;98020.91;;;13.95;100.00
18858;BME280;9558;50.178;8.370;2023-05-21T01:44:54;98018.72;;;13.92;100.00
18858;BME280;9558;50.178;8.370;2023-05-21T01:47:43;98024.34;;;13.89;100.00
18858;BME280;9558;50.178;8.370;2023-05-21T01:50:32;98020.13;;;13.88;100.00
18858;BME280;9558;50.178;8.370;2023-05-21T01:53:19;98018.50;;;13.87;100.00
18858;BME280;9558;50.178;8.370;2023-05-21T01:56:06;98017.53;;;13.88;100.00
18858;BME280;9558;50.178;8.370;2023-05-21T01:58:55;98010.91;;;13.86;100.00
18858;BME280;9558;50.178;8.370;2023-05-21T02:01:43;98016.13;;;13.86;100.00
18858;BME280;9558;50.178;8.370;2023-05-21T02:04:30;98012.72;;;13.85;100.00
18858;BME280;9558;50.178;8.370;2023-05-21T02:07:17;98006.91;;;13.83;100.00
18858;BME280;9558;50.178;8.370;2023-05-21T02:10:05;98012.09;;;13.83;100.00
18858;BME280;9558;50.178;8.370;2023-05-21T02:12:52;98011.53;;;13.81;100.00
18858;BME280;9558;50.178;8.370;2023-05-21T02:15:40;98006.50;;;13.79;100.00
18858;BME280;9558;50.178;8.370;2023-05-21T02:18:27;98008.91;;;13.81;100.00
18858;BME280;9558;50.178;8.370;2023-05-21T02:21:14;98011.31;;;13.82;100.00
18858;BME280;9558;50.178;8.370;2023-05-21T02:24:00;98008.91;;;13.81;100.00
18858;BME280;9558;50.178;8.370;2023-05-21T02:26:47;98007.31;;;13.80;100.00
18858;BME280;9558;50.178;8.370;2023-05-21T02:29:34;98007.31;;;13.80;100.00
18858;BME280;9558;50.178;8.370;2023-05-21T02:32:23;98007.72;;;13.83;100.00
18858;BME280;9558;50.178;8.370;2023-05-21T02:35:11;98008.31;;;13.79;100.00
18858;BME280;9558;50.178;8.370;2023-05-21T02:37:58;98009.53;;;13.76;100.00
18858;BME280;9558;50.178;8.370;2023-05-21T02:40:47;98011.31;;;13.76;100.00
18858;BME280;9558;50.178;8.370;2023-05-21T02:43:35;98009.72;;;13.75;100.00
18858;BME280;9558;50.178;8.370;2023-05-21T02:46:22;98004.91;;;13.72;100.00
18858;BME280;9558;50.178;8.370;2023-05-21T02:49:10;98004.50;;;13.68;100.00
18858;BME280;9558;50.178;8.370;2023-05-21T02:51:56;98003.91;;;13.66;100.00
18858;BME280;9558;50.178;8.370;2023-05-21T02:54:43;98005.91;;;13.71;100.00
18858;BME280;9558;50.178;8.370;2023-05-21T02:57:30;98001.31;;;13.66;100.00
18858;BME280;9558;50.178;8.370;2023-05-21T03:00:17;98003.09;;;13.65;100.00
18858;BME280;9558;50.178;8.370;2023-05-21T03:03:03;98009.28;;;13.64;100.00
18858;BME280;9558;50.178;8.370;2023-05-21T03:05:51;98002.50;;;13.63;100.00
18858;BME280;9558;50.178;8.370;2023-05-21T03:08:38;98007.50;;;13.65;100.00
18858;BME280;9558;50.178;8.370;2023-05-21T03:11:25;98002.09;;;13.67;100.00
18858;BME280;9558;50.178;8.370;2023-05-21T03:14:12;98004.31;;;13.70;100.00
18858;BME280;9558;50.178;8.370;2023-05-21T03:16:59;98001.72;;;13.70;100.00
18858;BME280;9558;50.178;8.370;2023-05-21T03:19:45;98001.31;;;13.73;100.00
18858;BME280;9558;50.178;8.370;2023-05-21T03:22:34;98000.91;;;13.76;100.00
18858;BME280;9558;50.178;8.370;2023-05-21T03:25:23;97998.50;;;13.74;100.00
18858;BME280;9558;50.178;8.370;2023-05-21T03:28:09;97995.09;;;13.74;100.00
18858;BME280;9558;50.178;8.370;2023-05-21T03:30:56;97991.31;;;13.76;100.00
18858;BME280;9558;50.178;8.370;2023-05-21T03:33:43;97983.72;;;13.75;100.00
18858;BME280;9558;50.178;8.370;2023-05-21T03:36:30;97993.31;;;13.74;100.00
18858;BME280;9558;50.178;8.370;2023-05-21T03:39:18;97986.91;;;13.70;100.00
18858;BME280;9558;50.178;8.370;2023-05-21T03:42:05;97983.09;;;13.73;100.00
18858;BME280;9558;50.178;8.370;2023-05-21T03:44:51;97987.50;;;13.72;100.00
18858;BME280;9558;50.178;8.370;2023-05-21T03:47:38;97987.72;;;13.71;100.00
18858;BME280;9558;50.178;8.370;2023-05-21T03:50:26;97995.09;;;13.74;100.00
18858;BME280;9558;50.178;8.370;2023-05-21T03:53:13;97993.31;;;13.74;100.00
18858;BME280;9558;50.178;8.370;2023-05-21T03:56:01;97982.50;;;13.71;100.00
18858;BME280;9558;50.178;8.370;2023-05-21T03:58:48;97984.72;;;13.74;100.00
18858;BME280;9558;50.178;8.370;2023-05-21T04:01:35;97985.69;;;13.73;100.00
18858;BME280;9558;50.178;8.370;2023-05-21T04:04:23;97991.53;;;13.75;100.00
18858;BME280;9558;50.178;8.370;2023-05-21T04:07:10;97988.91;;;13.75;100.00
18858;BME280;9558;50.178;8.370;2023-05-21T04:09:59;97994.31;;;13.80;100.00
18858;BME280;9558;50.178;8.370;2023-05-21T04:12:47;97991.69;;;13.80;100.00
18858;BME280;9558;50.178;8.370;2023-05-21T04:15:36;97999.09;;;13.83;100.00
18858;BME280;9558;50.178;8.370;2023-05-21T04:18:23;97994.09;;;13.81;100.00
18858;BME280;9558;50.178;8.370;2023-05-21T04:21:10;97992.50;;;13.87;100.00
18858;BME280;9558;50.178;8.370;2023-05-21T04:23:57;97992.50;;;13.87;100.00
18858;BME280;9558;50.178;8.370;2023-05-21T04:26:45;97999.50;;;13.87;100.00
18858;BME280;9558;50.178;8.370;2023-05-21T04:29:33;97995.72;;;13.89;100.00
18858;BME280;9558;50.178;8.370;2023-05-21T04:32:22;97999.72;;;13.92;100.00
18858;BME280;9558;50.178;8.370;2023-05-21T04:35:09;98001.72;;;13.96;100.00
18858;BME280;9558;50.178;8.370;2023-05-21T04:37:56;98003.72;;;14.01;100.00
18858;BME280;9558;50.178;8.370;2023-05-21T04:40:43;98012.50;;;14.07;100.00
18858;BME280;9558;50.178;8.370;2023-05-21T04:43:30;98009.31;;;14.11;100.00
18858;BME280;9558;50.178;8.370;2023-05-21T04:46:18;98012.09;;;14.16;100.00
18858;BME280;9558;50.178;8.370;2023-05-21T04:49:04;98012.09;;;14.23;100.00
18858;BME280;9558;50.178;8.370;2023-05-21T04:51:51;98014.28;;;14.33;100.00
18858;BME280;9558;50.178;8.370;2023-05-21T04:54:38;98010.25;;;14.37;100.00
18858;BME280;9558;50.178;8.370;2023-05-21T04:57:26;98010.66;;;14.41;100.00
18858;BME280;9558;50.178;8.370;2023-05-21T05:00:14;98013.06;;;14.49;100.00
18858;BME280;9558;50.178;8.370;2023-05-21T05:03:02;98012.25;;;14.55;100.00
18858;BME280;9558;50.178;8.370;2023-05-21T05:05:49;98004.44;;;14.62;100.00
18858;BME280;9558;50.178;8.370;2023-05-21T05:08:37;98011.00;;;14.71;100.00
18858;BME280;9558;50.178;8.370;2023-05-21T05:11:24;98006.38;;;14.80;100.00
18858;BME280;9558;50.178;8.370;2023-05-21T05:14:11;98006.16;;;14.88;100.00
18858;BME280;9558;50.178;8.370;2023-05-21T05:16:57;98011.13;;;14.96;100.00
18858;BME280;9558;50.178;8.370;2023-05-21T05:19:46;98007.88;;;15.08;100.00
18858;BME280;9558;50.178;8.370;2023-05-21T05:22:33;98013.44;;;15.18;100.00
18858;BME280;9558;50.178;8.370;2023-05-21T05:25:20;98011.16;;;15.28;100.00
18858;BME280;9558;50.178;8.370;2023-05-21T05:28:07;98006.91;;;15.41;100.00
18858;BME280;9558;50.178;8.370;2023-05-21T05:30:53;98009.22;;;15.49;100.00
18858;BME280;9558;50.178;8.370;2023-05-21T05:33:40;98009.59;;;15.59;100.00
18858;BME280;9558;50.178;8.370;2023-05-21T05:36:28;98004.69;;;15.69;100.00
18858;BME280;9558;50.178;8.370;2023-05-21T05:39:16;98013.88;;;15.79;100.00
18858;BME280;9558;50.178;8.370;2023-05-21T05:42:03;98009.41;;;15.86;100.00
18858;BME280;9558;50.178;8.370;2023-05-21T05:44:50;98008.13;;;15.95;100.00
18858;BME280;9558;50.178;8.370;2023-05-21T05:47:37;98012.06;;;16.04;100.00
18858;BME280;9558;50.178;8.370;2023-05-21T05:50:23;98016.00;;;16.14;100.00
18858;BME280;9558;50.178;8.370;2023-05-21T05:53:12;98011.53;;;16.21;100.00
18858;BME280;9558;50.178;8.370;2023-05-21T05:55:59;98013.22;;;16.34;99.69
18858;BME280;9558;50.178;8.370;2023-05-21T05:58:45;98017.94;;;16.44;99.17
18858;BME280;9558;50.178;8.370;2023-05-21T06:01:32;98008.78;;;16.53;98.24
18858;BME280;9558;50.178;8.370;2023-05-21T06:04:19;98010.69;;;16.64;98.17
18858;BME280;9558;50.178;8.370;2023-05-21T06:07:06;98007.94;;;16.78;97.52
18858;BME280;9558;50.178;8.370;2023-05-21T06:09:54;98011.19;;;16.91;95.75
18858;BME280;9558;50.178;8.370;2023-05-21T06:12:41;98010.81;;;17.06;95.63
18858;BME280;9558;50.178;8.370;2023-05-21T06:15:28;98013.06;;;17.33;95.12
18858;BME280;9558;50.178;8.370;2023-05-21T06:18:15;98014.75;;;17.58;92.96
18858;BME280;9558;50.178;8.370;2023-05-21T06:21:02;98017.53;;;17.87;91.20
18858;BME280;9558;50.178;8.370;2023-05-21T06:23:49;98020.41;;;18.33;90.18
18858;BME280;9558;50.178;8.370;2023-05-21T06:26:38;98009.06;;;18.79;87.48
18858;BME280;9558;50.178;8.370;2023-05-21T06:29:25;98016.53;;;19.28;84.07
18858;BME280;9558;50.178;8.370;2023-05-21T06:32:12;98016.03;;;19.77;82.51
18858;BME280;9558;50.178;8.370;2023-05-21T06:34:59;98017.66;;;20.12;79.99
18858;BME280;9558;50.178;8.370;2023-05-21T06:37:46;98018.22;;;20.53;79.94
18858;BME280;9558;50.178;8.370;2023-05-21T06:40:33;98010.22;;;20.87;79.33
18858;BME280;9558;50.178;8.370;2023-05-21T06:43:22;98006.28;;;21.12;76.54
18858;BME280;9558;50.178;8.370;2023-05-21T06:46:09;98009.69;;;21.35;76.10
18858;BME280;9558;50.178;8.370;2023-05-21T06:48:56;98012.06;;;21.64;73.56
18858;BME280;9558;50.178;8.370;2023-05-21T06:51:45;98013.34;;;21.99;73.27
18858;BME280;9558;50.178;8.370;2023-05-21T06:54:32;98007.78;;;22.33;71.89
18858;BME280;9558;50.178;8.370;2023-05-21T06:57:19;98019.31;;;22.74;70.21
18858;BME280;9558;50.178;8.370;2023-05-21T07:00:09;98018.69;;;23.20;69.00
18858;BME280;9558;50.178;8.370;2023-05-21T07:02:56;98019.81;;;23.55;67.44
18858;BME280;9558;50.178;8.370;2023-05-21T07:05:43;98018.22;;;23.90;66.55
18858;BME280;9558;50.178;8.370;2023-05-21T07:08:30;98017.41;;;24.10;64.98
18858;BME280;9558;50.178;8.370;2023-05-21T07:11:17;98018.44;;;24.30;65.12
18858;BME280;9558;50.178;8.370;2023-05-21T07:14:04;98022.88;;;24.55;63.62
18858;BME280;9558;50.178;8.370;2023-05-21T07:16:53;98028.09;;;24.76;63.45
18858;BME280;9558;50.178;8.370;2023-05-21T07:19:40;98024.84;;;24.94;62.49
18858;BME280;9558;50.178;8.370;2023-05-21T07:22:27;98019.97;;;25.12;61.40
18858;BME280;9558;50.178;8.370;2023-05-21T07:25:13;98016.94;;;25.34;60.92
18858;BME280;9558;50.178;8.370;2023-05-21T07:28:00;98014.72;;;25.46;58.40
18858;BME280;9558;50.178;8.370;2023-05-21T07:30:47;98008.66;;;25.46;59.68
18858;BME280;9558;50.178;8.370;2023-05-21T07:33:36;98017.69;;;25.79;59.18
18858;BME280;9558;50.178;8.370;2023-05-21T07:36:23;98013.78;;;26.01;58.38
18858;BME280;9558;50.178;8.370;2023-05-21T07:39:10;98015.09;;;26.28;57.52
18858;BME280;9558;50.178;8.370;2023-05-21T07:41:57;98011.53;;;26.62;56.79
18858;BME280;9558;50.178;8.370;2023-05-21T07:44:44;98008.66;;;27.20;55.81
18858;BME280;9558;50.178;8.370;2023-05-21T07:47:31;98004.47;;;27.85;53.42
18858;BME280;9558;50.178;8.370;2023-05-21T07:50:23;98010.16;;;28.39;51.75
18858;BME280;9558;50.178;8.370;2023-05-21T07:53:10;98005.03;;;29.07;49.77
18858;BME280;9558;50.178;8.370;2023-05-21T07:55:58;98010.53;;;29.70;48.92
18858;BME280;9558;50.178;8.370;2023-05-21T07:58:47;97999.81;;;30.24;47.38
18858;BME280;9558;50.178;8.370;2023-05-21T08:01:35;98002.34;;;30.87;46.50
18858;BME280;9558;50.178;8.370;2023-05-21T08:04:22;98005.03;;;31.48;43.57
18858;BME280;9558;50.178;8.370;2023-05-21T08:07:10;98005.66;;;32.10;43.79
18858;BME280;9558;50.178;8.370;2023-05-21T08:09:58;98003.06;;;32.61;42.30
18858;BME280;9558;50.178;8.370;2023-05-21T08:12:45;98006.25;;;33.05;40.43
18858;BME280;9558;50.178;8.370;2023-05-21T08:15:32;98019.00;;;33.30;38.70
18858;BME280;9558;50.178;8.370;2023-05-21T08:18:19;98011.22;;;33.49;38.28
18858;BME280;9558;50.178;8.370;2023-05-21T08:21:08;98009.50;;;33.66;38.17
18858;BME280;9558;50.178;8.370;2023-05-21T08:23:56;98010.41;;;33.70;35.88
18858;BME280;9558;50.178;8.370;2023-05-21T08:26:44;98018.59;;;33.52;35.81
18858;BME280;9558;50.178;8.370;2023-05-21T08:29:32;98016.56;;;33.37;35.76
18858;BME280;9558;50.178;8.370;2023-05-21T08:32:19;98014.00;;;33.19;36.61
18858;BME280;9558;50.178;8.370;2023-05-21T08:35:07;98009.03;;;33.09;37.45
18858;BME280;9558;50.178;8.370;2023-05-21T08:37:54;98011.03;;;33.00;37.54
18858;BME280;9558;50.178;8.370;2023-05-21T08:40:44;98012.81;;;33.08;37.61
18858;BME280;9558;50.178;8.370;2023-05-21T08:43:32;98014.28;;;33.05;36.50
18858;BME280;9558;50.178;8.370;2023-05-21T08:46:20;98000.91;;;32.97;34.93
18858;BME280;9558;50.178;8.370;2023-05-21T08:49:11;98004.00;;;32.86;36.10
18858;BME280;9558;50.178;8.370;2023-05-21T08:51:58;98006.09;;;32.81;36.85
18858;BME280;9558;50.178;8.370;2023-05-21T08:54:47;98007.16;;;32.59;35.76
18858;BME280;9558;50.178;8.370;2023-05-21T08:57:41;97996.84;;;32.48;36.31
18858;BME280;9558;50.178;8.370;2023-05-21T09:00:29;97999.00;;;32.25;36.96
18858;BME280;9558;50.178;8.370;2023-05-21T09:03:16;97994.81;;;32.15;37.88
18858;BME280;9558;50.178;8.370;2023-05-21T09:06:03;97999.38;;;32.06;39.58
18858;BME280;9558;50.178;8.370;2023-05-21T09:08:55;97998.03;;;31.82;39.97
18858;BME280;9558;50.178;8.370;2023-05-21T09:11:46;97996.53;;;31.29;40.42
18858;BME280;9558;50.178;8.370;2023-05-21T09:14:36;97997.19;;;31.08;41.98
18858;BME280;9558;50.178;8.370;2023-05-21T09:17:23;97996.25;;;31.04;42.58
18858;BME280;9558;50.178;8.370;2023-05-21T09:20:11;98003.44;;;30.95;42.70
18858;BME280;9558;50.178;8.370;2023-05-21T09:23:02;98000.09;;;30.63;41.91
18858;BME280;9558;50.178;8.370;2023-05-21T09:25:49;97997.94;;;30.25;43.26
18858;BME280;9558;50.178;8.370;2023-05-21T09:28:37;97996.88;;;29.94;43.78
18858;BME280;9558;50.178;8.370;2023-05-21T09:31:25;98005.53;;;29.46;44.03
18858;BME280;9558;50.178;8.370;2023-05-21T09:34:12;98004.03;;;29.17;45.00
18858;BME280;9558;50.178;8.370;2023-05-21T09:36:59;98006.28;;;28.87;45.30
18858;BME280;9558;50.178;8.370;2023-05-21T09:39:47;97997.81;;;28.57;47.29
18858;BME280;9558;50.178;8.370;2023-05-21T09:42:33;97997.34;;;28.41;46.76
18858;BME280;9558;50.178;8.370;2023-05-21T09:45:21;97989.94;;;28.24;47.08
18858;BME280;9558;50.178;8.370;2023-05-21T09:48:10;97988.66;;;28.08;48.22
18858;BME280;9558;50.178;8.370;2023-05-21T09:51:06;97988.34;;;27.96;48.38
18858;BME280;9558;50.178;8.370;2023-05-21T09:53:54;97990.06;;;27.86;48.82
18858;BME280;9558;50.178;8.370;2023-05-21T09:56:42;97990.47;;;27.80;49.71
18858;BME280;9558;50.178;8.370;2023-05-21T09:59:36;97983.16;;;27.71;49.43
18858;BME280;9558;50.178;8.370;2023-05-21T10:02:24;97985.25;;;27.74;49.69
18858;BME280;9558;50.178;8.370;2023-05-21T10:05:14;97986.81;;;27.75;49.96
18858;BME280;9558;50.178;8.370;2023-05-21T10:08:03;97975.72;;;27.87;51.15
18858;BME280;9558;50.178;8.370;2023-05-21T10:10:50;97981.13;;;27.96;50.96
18858;BME280;9558;50.178;8.370;2023-05-21T10:13:40;97978.91;;;28.03;50.54
18858;BME280;9558;50.178;8.370;2023-05-21T10:16:31;97973.97;;;28.10;50.70
18858;BME280;9558;50.178;8.370;2023-05-21T10:19:19;97971.22;;;28.16;50.14
18858;BME280;9558;50.178;8.370;2023-05-21T10:22:08;97964.41;;;28.23;50.97
18858;BME280;9558;50.178;8.370;2023-05-21T10:24:56;97971.41;;;28.19;48.86
18858;BME280;9558;50.178;8.370;2023-05-21T10:27:44;97970.50;;;27.96;46.54
18858;BME280;9558;50.178;8.370;2023-05-21T10:30:33;97962.91;;;27.75;46.32
18858;BME280;9558;50.178;8.370;2023-05-21T10:33:22;97974.78;;;27.64;46.33
18858;BME280;9558;50.178;8.370;2023-05-21T10:36:10;97955.88;;;27.33;45.75
18858;BME280;9558;50.178;8.370;2023-05-21T10:38:59;97957.88;;;27.22;45.86
18858;BME280;9558;50.178;8.370;2023-05-21T10:41:53;97952.81;;;27.06;46.52
18858;BME280;9558;50.178;8.370;2023-05-21T10:44:53;97947.50;;;26.87;45.70
18858;BME280;9558;50.178;8.370;2023-05-21T10:47:56;97955.38;;;26.73;46.22
18858;BME280;9558;50.178;8.370;2023-05-21T10:51:08;97951.56;;;26.61;46.92
18858;BME280;9558;50.178;8.370;2023-05-21T10:54:29;97945.41;;;26.65;47.57
18858;BME280;9558;50.178;8.370;2023-05-21T10:57:43;97947.25;;;26.65;47.22
18858;BME280;9558;50.178;8.370;2023-05-21T11:00:33;97947.03;;;26.61;46.45
18858;BME280;9558;50.178;8.370;2023-05-21T11:03:21;97945.59;;;26.50;48.96
18858;BME280;9558;50.178;8.370;2023-05-21T11:06:08;97941.88;;;26.51;47.83
18858;BME280;9558;50.178;8.370;2023-05-21T11:08:56;97946.81;;;26.58;46.49
18858;BME280;9558;50.178;8.370;2023-05-21T11:11:50;97951.09;;;26.53;46.57
18858;BME280;9558;50.178;8.370;2023-05-21T11:14:39;97945.94;;;26.43;47.10
18858;BME280;9558;50.178;8.370;2023-05-21T11:17:38;97941.44;;;26.44;48.63
18858;BME280;9558;50.178;8.370;2023-05-21T11:20:32;97934.97;;;26.50;47.60
18858;BME280;9558;50.178;8.370;2023-05-21T11:23:20;97937.56;;;26.55;47.88
18858;BME280;9558;50.178;8.370;2023-05-21T11:26:07;97945.97;;;26.62;47.95
18858;BME280;9558;50.178;8.370;2023-05-21T11:29:06;97940.28;;;26.74;47.78
18858;BME280;9558;50.178;8.370;2023-05-21T11:31:58;97929.66;;;26.74;47.08
18858;BME280;9558;50.178;8.370;2023-05-21T11:34:47;97918.09;;;26.84;47.47
18858;BME280;9558;50.178;8.370;2023-05-21T11:37:34;97924.56;;;26.97;46.24
18858;BME280;9558;50.178;8.370;2023-05-21T11:40:25;97918.78;;;27.08;47.28
18858;BME280;9558;50.178;8.370;2023-05-21T11:43:14;97919.13;;;27.21;47.02
18858;BME280;9558;50.178;8.370;2023-05-21T11:46:03;97929.75;;;27.21;45.97
18858;BME280;9558;50.178;8.370;2023-05-21T11:48:51;97928.06;;;27.25;45.78
18858;BME280;9558;50.178;8.370;2023-05-21T11:51:39;97933.38;;;27.25;46.27
18858;BME280;9558;50.178;8.370;2023-05-21T11:54:26;97930.66;;;27.30;45.30
18858;BME280;9558;50.178;8.370;2023-05-21T11:57:13;97934.97;;;27.26;44.89
18858;BME280;9558;50.178;8.370;2023-05-21T12:00:03;97928.06;;;27.25;45.96
18858;BME280;9558;50.178;8.370;2023-05-21T12:02:59;97921.78;;;27.21;45.93
18858;BME280;9558;50.178;8.370;2023-05-21T12:05:47;97923.47;;;27.31;45.49
18858;BME280;9558;50.178;8.370;2023-05-21T12:08:34;97927.38;;;27.38;44.91
18858;BME280;9558;50.178;8.370;2023-05-21T12:11:22;97931.09;;;27.37;44.88
18858;BME280;9558;50.178;8.370;2023-05-21T12:14:12;97932.09;;;27.41;45.61
18858;BME280;9558;50.178;8.370;2023-05-21T12:16:59;97930.06;;;27.33;43.91
18858;BME280;9558;50.178;8.370;2023-05-21T12:19:50;97924.63;;;27.24;44.15
18858;BME280;9558;50.178;8.370;2023-05-21T12:22:40;97924.56;;;27.30;44.91
18858;BME280;9558;50.178;8.370;2023-05-21T12:25:28;97919.63;;;27.23;46.46
18858;BME280;9558;50.178;8.370;2023-05-21T12:28:16;97931.72;;;27.29;44.58
18858;BME280;9558;50.178;8.370;2023-05-21T12:31:03;97930.06;;;27.19;44.84
18858;BME280;9558;50.178;8.370;2023-05-21T12:33:51;97932.00;;;27.14;45.47
18858;BME280;9558;50.178;8.370;2023-05-21T12:36:41;97924.16;;;27.03;45.37
18858;BME280;9558;50.178;8.370;2023-05-21T12:39:30;97930.19;;;27.09;46.22
18858;BME280;9558;50.178;8.370;2023-05-21T12:42:24;97937.38;;;27.08;45.04
18858;BME280;9558;50.178;8.370;2023-05-21T12:45:12;97933.72;;;27.04;45.21
18858;BME280;9558;50.178;8.370;2023-05-21T12:48:00;97925.25;;;27.02;44.97
18858;BME280;9558;50.178;8.370;2023-05-21T12:50:47;97916.19;;;27.03;43.83
18858;BME280;9558;50.178;8.370;2023-05-21T12:53:40;97910.75;;;26.95;45.04
18858;BME280;9558;50.178;8.370;2023-05-21T12:56:42;97917.94;;;26.94;44.06
18858;BME280;9558;50.178;8.370;2023-05-21T12:59:42;97915.19;;;26.99;45.99
18858;BME280;9558;50.178;8.370;2023-05-21T13:02:30;97912.47;;;27.04;45.92
18858;BME280;9558;50.178;8.370;2023-05-21T13:05:18;97908.66;;;27.11;46.23
18858;BME280;9558;50.178;8.370;2023-05-21T13:08:05;97908.34;;;27.12;45.71
18858;BME280;9558;50.178;8.370;2023-05-21T13:10:53;97904.34;;;27.15;45.07
18858;BME280;9558;50.178;8.370;2023-05-21T13:13:40;97914.47;;;27.13;45.38
18858;BME280;9558;50.178;8.370;2023-05-21T13:16:27;97907.09;;;27.10;44.63
18858;BME280;9558;50.178;8.370;2023-05-21T13:19:13;97914.47;;;27.13;45.16
18858;BME280;9558;50.178;8.370;2023-05-21T13:22:01;97910.22;;;27.12;45.30
18858;BME280;9558;50.178;8.370;2023-05-21T13:24:48;97902.84;;;27.08;44.09
18858;BME280;9558;50.178;8.370;2023-05-21T13:27:37;97902.13;;;27.03;44.44
18858;BME280;9558;50.178;8.370;2023-05-21T13:30:24;97910.69;;;27.00;44.15
18858;BME280;9558;50.178;8.370;2023-05-21T13:33:11;97896.69;;;26.94;44.23
18858;BME280;9558;50.178;8.370;2023-05-21T13:35:58;97899.41;;;26.89;43.94
18858;BME280;9558;50.178;8.370;2023-05-21T13:38:45;97898.66;;;26.88;44.93
18858;BME280;9558;50.178;8.370;2023-05-21T13:41:31;97907.63;;;26.93;43.76
18858;BME280;9558;50.178;8.370;2023-05-21T13:44:20;97905.72;;;26.93;44.00
18858;BME280;9558;50.178;8.370;2023-05-21T13:47:07;97887.44;;;26.92;43.46
18858;BME280;9558;50.178;8.370;2023-05-21T13:49:55;97891.97;;;26.91;45.13
18858;BME280;9558;50.178;8.370;2023-05-21T13:52:41;97891.97;;;26.91;44.42
18858;BME280;9558;50.178;8.370;2023-05-21T13:55:28;97892.75;;;26.92;44.72
18858;BME280;9558;50.178;8.370;2023-05-21T13:58:15;97891.38;;;26.94;45.18
18858;BME280;9558;50.178;8.370;2023-05-21T14:01:04;97894.94;;;27.03;44.49
18858;BME280;9558;50.178;8.370;2023-05-21T14:03:50;97885.03;;;27.09;43.95
18858;BME280;9558;50.178;8.370;2023-05-21T14:06:37;97892.22;;;27.08;44.28
18858;BME280;9558;50.178;8.370;2023-05-21T14:09:25;97902.63;;;27.05;43.99
18858;BME280;9558;50.178;8.370;2023-05-21T14:12:12;97892.38;;;26.98;43.53
18858;BME280;9558;50.178;8.370;2023-05-21T14:14:59;97890.81;;;26.97;44.30
18858;BME280;9558;50.178;8.370;2023-05-21T14:17:47;97897.69;;;26.98;44.15
18858;BME280;9558;50.178;8.370;2023-05-21T14:20:34;97896.81;;;27.03;44.57
18858;BME280;9558;50.178;8.370;2023-05-21T14:23:21;97891.44;;;27.08;44.62
18858;BME280;9558;50.178;8.370;2023-05-21T14:26:07;97891.75;;;27.06;43.45
18858;BME280;9558;50.178;8.370;2023-05-21T14:28:55;97883.78;;;27.06;43.28
18858;BME280;9558;50.178;8.370;2023-05-21T14:31:42;97892.41;;;27.12;41.64
18858;BME280;9558;50.178;8.370;2023-05-21T14:34:32;97890.22;;;27.00;42.25
18858;BME280;9558;50.178;8.370;2023-05-21T14:37:19;97889.22;;;26.96;42.76
18858;BME280;9558;50.178;8.370;2023-05-21T14:40:06;97898.00;;;26.97;42.47
18858;BME280;9558;50.178;8.370;2023-05-21T14:42:53;97894.53;;;26.96;43.40
18858;BME280;9558;50.178;8.370;2023-05-21T14:45:40;97905.09;;;27.01;42.65
18858;BME280;9558;50.178;8.370;2023-05-21T14:48:27;97898.13;;;27.05;42.11
18858;BME280;9558;50.178;8.370;2023-05-21T14:51:15;97893.81;;;27.10;42.27
18858;BME280;9558;50.178;8.370;2023-05-21T14:54:02;97889.16;;;27.01;41.60
18858;BME280;9558;50.178;8.370;2023-05-21T14:56:49;97892.22;;;27.08;41.98
18858;BME280;9558;50.178;8.370;2023-05-21T14:59:36;97892.81;;;27.05;42.26